Главная страница
METAR-TAF:

METAR-TAF

Аэропорты :

Намсус, Норвегия

широта: 64-28N, долгота: 011-35E, высота над уровнем моря: 0 м

Текущие метеонаблюдения

Эта сводка был подготовлена 47 минут назад, в 14:50 UTC
Ветер 4 Узел переменных направлений
Температура 26°C
Влажность 34%
Давление 1007 hPa
Видимость 10 км и более
Нет облачности ниже 1500 м, и нет кучево-дождевой облачности

METAR: ENNM 221450Z VRB04KT CAVOK 26/09 Q1007

Время: 17:37 (15:37 UTC)

Прогноз

Эта сводка был подготовлена 25 часа и 37 минут назад, в 14:00 UTC
Прогноз действительный с 21-го 15 UTC до 21-го 21 UTC
Ветер 5 Узел переменных направлений
Видимость: 9000 м
Отдельные облака на высоте 400 фута
Рассеянная облачность на высоте 1500 фута
небольшой дождь, Морось
временами
С 21-го 15 UTC до 21-го 16 UTC
Видимость: 4000 м
Рассеянная облачность на высоте 400 фута
дождь, Морось,

TAF: ENNM 211400Z 2115/2121 VRB05KT 9000 -RADZ SCT004 BKN015 TEMPO 2115/2116 4000 RADZ BKN004

Метеонаблюдения и прогнозы для более 4000 аэропортов (сводки METAR и TAF).

Имеющиеся станции представлены на карте желтыми и красными точками.

Чтобы увидеть название станции, наведите на нее мышь.

Затем щелкните, чтобы увидеть метеонаблюдения и метеопрогнозы.

Управление картой: чтобы увеличить масштаб, щелкните зеленые кнопки с черным крестиком; чтобы уменьшить масштаб, щелкните зеленую кнопку с тире; для просмотра соседних карт щелкайте зеленые стрелки.


METAR-TAF: